Time;durP1;ratioP1;P1;durP2;ratioP2;P2;SDS_P1;SDS_P2;PMS_P1;PMS_P2;Temp;Humidity;BMP_temperature;BMP_pressure;BME280_temperature;BME280_humidity;BME280_pressure;Samples;Min_cycle;Max_cycle;Signal;HPM_P1;HPM_P2
2022/04/04 00:02:24;;;;;;;6.93;5.70;;;;;;;5.24;100.00;100436.44;5034891;28;20206;-80
2022/04/04 00:04:51;;;;;;;11.73;8.37;;;;;;;5.48;100.00;100476.00;5052489;28;20235;-81
2022/04/04 00:07:19;;;;;;;7.53;5.67;;;;;;;5.31;100.00;100467.59;5053438;28;20195;-80
2022/04/04 00:09:46;;;;;;;8.03;6.67;;;;;;;5.37;100.00;100475.56;5041857;28;20208;-80
2022/04/04 00:12:13;;;;;;;12.23;8.63;;;;;;;5.21;100.00;100475.72;5042782;28;20297;-79
2022/04/04 00:14:40;;;;;;;8.97;5.67;;;;;;;5.22;100.00;100474.03;5053138;28;20203;-79
2022/04/04 00:17:07;;;;;;;7.53;6.13;;;;;;;5.10;100.00;100473.53;5048574;28;20207;-80
2022/04/04 00:19:33;;;;;;;8.20;6.03;;;;;;;5.17;100.00;100479.00;5037951;28;20204;-79
2022/04/04 00:22:00;;;;;;;7.50;6.27;;;;;;;5.23;100.00;100474.09;5033100;28;20204;-80
2022/04/04 00:24:28;;;;;;;7.23;5.30;;;;;;;5.14;100.00;100473.69;5033116;28;20204;-80
2022/04/04 00:26:55;;;;;;;8.87;6.83;;;;;;;4.97;100.00;100479.81;5050022;28;20223;-81
2022/04/04 00:29:22;;;;;;;7.23;6.33;;;;;;;4.58;100.00;100439.53;5020920;28;20215;-79
2022/04/04 00:31:49;;;;;;;11.17;8.00;;;;;;;4.71;100.00;100432.44;5032855;28;20211;-80
2022/04/04 00:34:15;;;;;;;5.93;5.33;;;;;;;4.94;100.00;100480.56;5032765;28;20200;-79
2022/04/04 00:36:43;;;;;;;8.20;6.67;;;;;;;4.92;100.00;100481.31;5050224;28;20208;-81
2022/04/04 00:39:10;;;;;;;6.80;5.83;;;;;;;4.83;100.00;100486.91;5053173;28;20227;-79
2022/04/04 00:41:38;;;;;;;8.93;7.40;;;;;;;4.85;100.00;100466.44;5053223;28;20266;-80
2022/04/04 00:44:05;;;;;;;11.70;8.17;;;;;;;4.91;100.00;100476.97;5013912;28;20228;-80
2022/04/04 00:46:32;;;;;;;6.63;5.97;;;;;;;4.82;100.00;100466.28;4979203;28;20232;-80
2022/04/04 00:48:59;;;;;;;8.27;7.30;;;;;;;4.79;100.00;100486.72;5013194;28;20205;-80
2022/04/04 00:51:26;;;;;;;9.03;7.63;;;;;;;4.45;100.00;100456.97;5042801;28;20200;-81
2022/04/04 00:53:52;;;;;;;9.33;7.07;;;;;;;4.62;100.00;100479.94;5041836;28;20196;-79
2022/04/04 00:56:20;;;;;;;8.33;7.03;;;;;;;4.76;100.00;100491.72;4998190;28;20227;-79
2022/04/04 00:58:48;;;;;;;9.93;6.77;;;;;;;4.70;100.00;100478.59;5032807;28;20694;-81
2022/04/04 01:01:15;;;;;;;11.93;9.33;;;;;;;4.71;100.00;100463.25;5039033;28;20219;-79
2022/04/04 01:03:42;;;;;;;6.93;6.13;;;;;;;4.45;100.00;100423.59;5052660;28;20199;-80
2022/04/04 01:06:09;;;;;;;6.67;4.93;;;;;;;4.68;100.00;100493.94;5052474;28;20247;-80
2022/04/04 01:08:37;;;;;;;7.23;6.07;;;;;;;4.67;100.00;100491.31;5051779;28;20199;-80
2022/04/04 01:11:05;;;;;;;11.07;8.93;;;;;;;4.57;100.00;100507.09;5052784;28;20568;-81
2022/04/04 01:13:31;;;;;;;8.97;6.90;;;;;;;4.53;100.00;100495.81;5052856;28;20199;-79
2022/04/04 01:16:00;;;;;;;8.57;7.00;;;;;;;4.65;100.00;100508.31;5041885;28;20201;-81
2022/04/04 01:18:26;;;;;;;11.10;7.50;;;;;;;4.48;100.00;100479.34;5045232;28;20212;-80
2022/04/04 01:20:53;;;;;;;10.47;8.67;;;;;;;4.29;100.00;100472.47;4999770;28;20262;-79
2022/04/04 01:23:23;;;;;;;9.77;7.70;;;;;;;4.63;100.00;100499.69;5052618;28;20208;-80
2022/04/04 01:25:52;;;;;;;10.93;7.60;;;;;;;4.70;100.00;100501.72;5042509;28;20314;-80
2022/04/04 01:28:19;;;;;;;8.93;7.17;;;;;;;4.16;100.00;100423.97;5032808;28;20350;-80
2022/04/04 01:30:51;;;;;;;5.30;4.40;;;;;;;4.78;100.00;100505.53;5048156;28;20199;-80
2022/04/04 01:33:18;;;;;;;7.90;6.93;;;;;;;4.84;100.00;100498.06;5032728;28;20203;-80
2022/04/04 01:35:44;;;;;;;13.60;7.93;;;;;;;4.71;100.00;100495.78;5041361;28;20203;-78
2022/04/04 01:38:11;;;;;;;7.07;6.37;;;;;;;4.39;100.00;100458.34;5052065;28;20203;-80
2022/04/04 01:40:38;;;;;;;10.03;7.60;;;;;;;4.88;100.00;100507.69;5052374;28;20287;-79
2022/04/04 01:43:06;;;;;;;8.57;7.03;;;;;;;4.78;100.00;100505.53;5052269;28;20265;-80
2022/04/04 01:48:17;;;;;;;10.00;8.23;;;;;;;4.55;100.00;100489.06;5051898;28;20203;-79
2022/04/04 01:50:44;;;;;;;9.53;7.10;;;;;;;4.65;100.00;100498.06;5035643;28;20207;-79
2022/04/04 01:53:29;;;;;;;5.60;4.50;;;;;;;4.57;100.00;100479.72;5031864;28;20204;-80
2022/04/04 01:55:59;;;;;;;8.57;6.93;;;;;;;4.89;100.00;100514.56;5046181;28;20655;-80
2022/04/04 01:58:28;;;;;;;12.93;8.87;;;;;;;4.76;100.00;100525.09;5052560;28;20207;-80
2022/04/04 02:00:58;;;;;;;8.63;6.40;;;;;;;4.70;100.00;100527.41;5053135;28;20202;-79
2022/04/04 02:03:25;;;;;;;11.13;8.00;;;;;;;4.67;100.00;100511.88;5061827;28;20203;-80
2022/04/04 02:05:52;;;;;;;9.57;6.57;;;;;;;4.59;100.00;100519.22;5050395;28;20247;-79
2022/04/04 02:08:19;;;;;;;11.73;8.83;;;;;;;4.54;100.00;100517.22;5061613;28;20234;-79
2022/04/04 02:10:46;;;;;;;9.33;7.13;;;;;;;4.56;100.00;100518.19;5042058;28;20196;-80
2022/04/04 02:13:13;;;;;;;12.07;8.60;;;;;;;4.59;100.00;100513.19;5032563;28;20283;-80
2022/04/04 02:15:42;;;;;;;11.43;8.87;;;;;;;4.52;100.00;100516.28;5037658;28;20207;-80
2022/04/04 02:18:09;;;;;;;9.77;7.77;;;;;;;4.17;100.00;100469.38;5032369;28;20228;-79
2022/04/04 02:20:36;;;;;;;11.10;7.80;;;;;;;4.21;100.00;100473.78;5051084;28;20191;-80
2022/04/04 02:23:03;;;;;;;25.67;11.90;;;;;;;4.43;100.00;100520.19;5044762;28;20596;-79
2022/04/04 02:25:30;;;;;;;16.10;7.63;;;;;;;4.45;100.00;100521.16;5035556;28;20211;-79
2022/04/04 02:27:57;;;;;;;12.03;8.27;;;;;;;4.38;100.00;100518.22;5047591;28;20645;-79
2022/04/04 02:30:24;;;;;;;13.93;8.93;;;;;;;4.30;100.00;100486.19;5049120;28;20199;-79
2022/04/04 02:32:52;;;;;;;16.63;12.37;;;;;;;4.48;100.00;100515.28;5054854;28;20565;-80
2022/04/04 02:35:19;;;;;;;18.30;12.73;;;;;;;4.20;100.00;100484.91;5047867;28;20671;-79
2022/04/04 02:37:47;;;;;;;5.47;4.77;;;;;;;4.37;100.00;100525.03;5016698;28;20200;-80
2022/04/04 02:40:14;;;;;;;17.37;10.27;;;;;;;4.35;100.00;100513.81;5044617;28;20781;-79
2022/04/04 02:42:41;;;;;;;19.23;14.20;;;;;;;4.29;100.00;100510.97;5055114;28;20206;-80
2022/04/04 02:45:08;;;;;;;9.23;6.07;;;;;;;4.28;100.00;100506.63;5040605;28;20207;-79
2022/04/04 02:47:35;;;;;;;14.73;9.77;;;;;;;4.32;100.00;100517.91;5035285;28;20236;-80
2022/04/04 02:50:04;;;;;;;8.43;5.80;;;;;;;4.36;100.00;100512.13;5044882;28;20203;-80
2022/04/04 02:52:30;;;;;;;4.37;3.97;;;;;;;4.29;100.00;100505.84;5055250;28;20394;-79
2022/04/04 02:54:57;;;;;;;18.17;13.33;;;;;;;4.26;100.00;100526.22;5048294;28;20203;-79
2022/04/04 02:57:23;;;;;;;7.90;6.00;;;;;;;4.17;100.00;100518.13;5055443;28;20203;-80
2022/04/04 02:59:50;;;;;;;15.17;9.63;;;;;;;4.04;100.00;100520.88;5047151;28;20210;-79
2022/04/04 03:02:17;;;;;;;15.03;8.20;;;;;;;3.95;100.00;100494.81;5046363;28;20199;-81
2022/04/04 03:04:44;;;;;;;12.87;7.63;;;;;;;4.10;100.00;100507.47;5038759;28;20231;-79
2022/04/04 03:07:12;;;;;;;15.43;9.13;;;;;;;3.98;100.00;100492.38;5034821;28;20232;-79
2022/04/04 03:09:39;;;;;;;8.03;6.87;;;;;;;4.22;100.00;100520.88;5015855;28;20204;-79
2022/04/04 03:12:08;;;;;;;25.10;14.60;;;;;;;4.26;100.00;100527.91;5035318;28;20208;-79
2022/04/04 03:14:35;;;;;;;8.30;6.33;;;;;;;4.24;100.00;100525.28;5034663;28;20220;-80
2022/04/04 03:17:02;;;;;;;5.73;5.27;;;;;;;4.24;100.00;100540.69;5034421;28;20647;-80
2022/04/04 03:19:29;;;;;;;8.73;7.00;;;;;;;4.31;100.00;100537.59;5034436;28;20196;-80
2022/04/04 03:21:57;;;;;;;10.10;7.67;;;;;;;4.17;100.00;100507.84;5044027;28;20210;-79
2022/04/04 03:24:26;;;;;;;14.63;9.60;;;;;;;4.32;100.00;100536.78;4999926;28;20238;-79
2022/04/04 03:26:52;;;;;;;30.27;19.60;;;;;;;4.15;100.00;100537.66;5052910;28;20224;-80
2022/04/04 03:29:19;;;;;;;19.63;11.60;;;;;;;4.16;100.00;100539.44;5054246;28;20210;-80
2022/04/04 03:31:46;;;;;;;15.40;10.07;;;;;;;4.09;100.00;100539.06;5033487;28;20200;-80
2022/04/04 03:34:13;;;;;;;17.20;10.23;;;;;;;4.16;100.00;100541.13;5034141;28;20624;-78
2022/04/04 03:36:40;;;;;;;29.00;13.63;;;;;;;4.12;100.00;100544.34;5035938;28;20200;-80
2022/04/04 03:39:07;;;;;;;24.73;11.87;;;;;;;4.23;100.00;100544.06;5053635;28;20202;-80
2022/04/04 03:41:35;;;;;;;28.53;15.07;;;;;;;4.28;100.00;100547.69;5054072;28;20262;-79
2022/04/04 03:44:02;;;;;;;19.70;12.37;;;;;;;4.18;100.00;100547.19;5041890;28;20212;-79
2022/04/04 03:46:29;;;;;;;8.23;5.80;;;;;;;4.20;100.00;100559.31;5034124;28;20231;-79
2022/04/04 03:48:56;;;;;;;12.73;9.63;;;;;;;4.12;100.00;100552.94;5015314;28;20207;-79
2022/04/04 03:51:23;;;;;;;19.50;12.13;;;;;;;4.19;100.00;100562.69;5037497;28;20206;-81
2022/04/04 03:53:50;;;;;;;14.33;10.33;;;;;;;3.81;100.00;100516.34;5050154;28;20265;-79
2022/04/04 03:56:17;;;;;;;19.17;12.13;;;;;;;4.16;100.00;100564.22;5039065;28;20287;-80
2022/04/04 03:58:45;;;;;;;18.07;11.27;;;;;;;4.10;100.00;100536.59;5034347;28;20192;-79
2022/04/04 04:01:11;;;;;;;15.47;10.43;;;;;;;3.97;100.00;100529.09;5048455;28;20208;-79
2022/04/04 04:03:38;;;;;;;12.63;9.00;;;;;;;4.28;100.00;100569.94;5033185;28;20203;-79
2022/04/04 04:06:16;;;;;;;21.83;14.00;;;;;;;4.26;100.00;100568.97;5033700;28;20692;-79
2022/04/04 04:08:45;;;;;;;21.97;13.17;;;;;;;4.27;100.00;100574.19;5051006;28;20233;-79
2022/04/04 04:11:14;;;;;;;19.37;12.60;;;;;;;4.04;100.00;100546.53;5052896;28;20583;-80
2022/04/04 04:13:42;;;;;;;11.70;7.87;;;;;;;4.26;100.00;100559.59;5053331;28;20290;-79
2022/04/04 04:16:11;;;;;;;20.47;13.83;;;;;;;4.45;100.00;100587.91;5052739;28;20741;-78
2022/04/04 04:18:38;;;;;;;11.03;8.37;;;;;;;4.35;100.00;100585.69;5053070;28;20191;-80
2022/04/04 04:21:06;;;;;;;18.27;11.37;;;;;;;4.21;100.00;100553.34;5041323;28;20646;-79
2022/04/04 04:23:34;;;;;;;15.83;11.63;;;;;;;4.31;100.00;100588.06;5033314;28;20208;-79
2022/04/04 04:26:01;;;;;;;16.37;10.50;;;;;;;4.21;100.00;100573.03;5026901;28;20208;-79
2022/04/04 04:28:28;;;;;;;23.10;14.87;;;;;;;4.49;100.00;100600.06;5033340;28;20207;-79
2022/04/04 04:30:54;;;;;;;20.00;12.93;;;;;;;4.47;100.00;100601.69;5047896;28;20192;-80
2022/04/04 04:33:24;;;;;;;21.70;12.03;;;;;;;4.78;100.00;100605.69;5033613;28;20812;-80
2022/04/04 04:35:51;;;;;;;30.10;17.13;;;;;;;5.13;100.00;100608.19;4953452;28;20199;-80
2022/04/04 04:38:18;;;;;;;12.70;6.70;;;;;;;5.32;100.00;100597.88;5051392;28;20204;-79
2022/04/04 04:40:45;;;;;;;21.50;13.43;;;;;;;5.78;100.00;100610.16;5043288;28;20264;-79
2022/04/04 04:43:12;;;;;;;13.77;8.27;;;;;;;6.23;100.00;100614.69;5045225;28;20215;-78
2022/04/04 04:45:41;;;;;;;14.00;10.80;;;;;;;6.52;100.00;100612.38;5032761;28;20296;-78
2022/04/04 04:48:08;;;;;;;15.57;10.15;;;;;;;6.62;100.00;100605.06;5041363;28;20593;-78
2022/04/04 04:50:37;;;;;;;13.30;10.00;;;;;;;6.77;100.00;100609.94;5010891;28;20200;-78
2022/04/04 04:53:04;;;;;;;14.00;10.43;;;;;;;6.53;100.00;100614.16;5026952;28;20204;-78
2022/04/04 04:55:31;;;;;;;12.65;9.77;;;;;;;7.09;99.57;100619.78;5032831;28;20200;-78
2022/04/04 04:57:59;;;;;;;11.45;8.63;;;;;;;7.47;100.00;100593.66;5037449;28;20277;-80
2022/04/04 05:00:28;;;;;;;14.93;9.25;;;;;;;7.65;95.86;100616.66;5047107;28;20189;-80
2022/04/04 05:05:38;;;;;;;12.60;9.82;;;;;;;7.81;95.29;100624.09;5049593;28;20227;-80
2022/04/04 05:08:05;;;;;;;12.20;9.35;;;;;;;7.58;93.15;100630.16;5032045;28;20232;-80
2022/04/04 05:10:32;;;;;;;18.48;11.80;;;;;;;7.24;93.95;100620.31;4996835;28;20188;-80
2022/04/04 05:12:59;;;;;;;18.17;10.77;;;;;;;7.06;96.42;100635.13;5013349;28;20211;-79
2022/04/04 05:15:26;;;;;;;17.63;12.05;;;;;;;7.38;100.00;100619.13;5040664;28;20210;-79
2022/04/04 05:17:53;;;;;;;215.70;69.70;;;;;;;7.97;100.00;100647.06;5047092;28;20215;-80
2022/04/04 05:20:20;;;;;;;27.70;17.85;;;;;;;7.04;98.03;100647.06;5032163;28;20200;-80
2022/04/04 05:22:49;;;;;;;21.67;12.93;;;;;;;6.65;100.00;100649.00;5031827;28;20204;-80
2022/04/04 05:25:16;;;;;;;15.25;7.30;;;;;;;6.45;100.00;100645.63;5032177;28;20212;-80
2022/04/04 05:27:43;;;;;;;19.67;12.67;;;;;;;6.27;100.00;100657.75;4999460;28;20696;-79
2022/04/04 05:30:10;;;;;;;18.80;12.37;;;;;;;6.17;100.00;100659.91;5035629;28;20624;-77
2022/04/04 05:58:01;;;;;;;22.17;12.80;;;;;;;6.31;100.00;100681.94;5105267;27;1309746;-78
2022/04/04 06:00:28;;;;;;;13.90;9.13;;;;;;;6.35;100.00;100682.09;5149977;27;20196;-78
2022/04/04 06:02:55;;;;;;;13.87;10.60;;;;;;;6.27;100.00;100698.97;5149969;27;20211;-78
2022/04/04 06:05:22;;;;;;;15.13;11.03;;;;;;;6.33;100.00;100704.34;5149583;27;20196;-78
2022/04/04 06:07:49;;;;;;;12.50;9.30;;;;;;;6.35;100.00;100694.13;5149712;27;20204;-77
2022/04/04 06:10:16;;;;;;;11.87;9.47;;;;;;;6.39;100.00;100704.59;5149300;27;20192;-81
2022/04/04 06:12:44;;;;;;;26.48;13.10;;;;;;;6.76;100.00;100708.69;5149773;27;20208;-79
2022/04/04 06:15:14;;;;;;;16.87;12.07;;;;;;;6.87;100.00;100691.94;5149842;27;20192;-80
2022/04/04 06:17:42;;;;;;;18.48;9.23;;;;;;;6.95;100.00;100708.59;5149639;27;20189;-79
2022/04/04 06:20:10;;;;;;;16.33;12.38;;;;;;;7.08;100.00;100700.53;5145925;27;20236;-79
2022/04/04 06:22:37;;;;;;;16.90;12.88;;;;;;;7.09;100.00;100707.44;5091185;27;20208;-78
2022/04/04 06:25:05;;;;;;;19.33;14.27;;;;;;;7.04;100.00;100696.06;5150126;27;20236;-78
2022/04/04 06:27:32;;;;;;;21.23;12.75;;;;;;;7.20;100.00;100695.84;5149812;27;20199;-78
2022/04/04 06:29:59;;;;;;;15.98;11.48;;;;;;;7.55;100.00;100714.34;5149675;27;20630;-79
2022/04/04 06:32:28;;;;;;;16.45;11.43;;;;;;;7.46;99.82;100717.44;5149689;27;20196;-78
2022/04/04 06:34:54;;;;;;;17.77;10.68;;;;;;;7.59;98.42;100719.69;5149654;27;20192;-80
2022/04/04 06:37:21;;;;;;;8.45;5.90;;;;;;;7.61;96.59;100705.13;5149532;27;20200;-78
2022/04/04 06:39:48;;;;;;;16.95;12.07;;;;;;;7.86;94.41;100715.50;5149315;27;20228;-80
2022/04/04 06:42:15;;;;;;;15.07;11.23;;;;;;;7.68;93.29;100725.16;5095968;27;20192;-80
2022/04/04 06:44:43;;;;;;;24.45;12.93;;;;;;;7.83;94.45;100722.25;5149694;27;20200;-80
2022/04/04 06:47:10;;;;;;;17.40;10.63;;;;;;;8.01;100.00;100691.03;5148859;27;20268;-80
2022/04/04 06:49:38;;;;;;;20.45;11.88;;;;;;;7.91;93.29;100732.06;5147174;27;20196;-78
2022/04/04 06:52:05;;;;;;;18.55;12.60;;;;;;;7.81;91.96;100734.25;5135427;27;20204;-79
2022/04/04 06:54:32;;;;;;;21.35;12.30;;;;;;;7.62;92.74;100734.38;5135930;27;20193;-79
2022/04/04 06:56:59;;;;;;;20.10;12.35;;;;;;;7.71;92.11;100732.13;5136355;27;20233;-80
2022/04/04 06:59:26;;;;;;;17.77;10.95;;;;;;;7.88;90.90;100725.91;5135336;27;20221;-81
2022/04/04 07:01:52;;;;;;;20.52;13.32;;;;;;;7.94;88.02;100736.44;5135040;27;20604;-79
2022/04/04 07:04:19;;;;;;;14.13;9.32;;;;;;;8.03;86.47;100731.59;5134890;27;20201;-80
2022/04/04 07:06:47;;;;;;;14.23;11.27;;;;;;;7.99;84.85;100740.91;5135636;27;20683;-80
2022/04/04 07:09:14;;;;;;;10.27;8.32;;;;;;;8.27;82.99;100740.22;5134968;27;20204;-80
2022/04/04 07:11:41;;;;;;;17.42;10.30;;;;;;;8.32;84.67;100742.97;5135066;27;20257;-81
2022/04/04 07:14:10;;;;;;;11.20;7.68;;;;;;;8.21;79.11;100744.25;5134892;27;20207;-83
2022/04/04 07:16:36;;;;;;;12.75;7.40;;;;;;;8.26;80.35;100750.47;5136772;27;20203;-80
2022/04/04 07:19:03;;;;;;;19.80;12.63;;;;;;;8.23;80.36;100709.06;5134770;27;20232;-77
2022/04/04 07:21:30;;;;;;;23.90;12.45;;;;;;;8.57;78.83;100757.59;5098704;27;20203;-85
2022/04/04 07:23:59;;;;;;;8.77;7.15;;;;;;;8.59;77.13;100755.97;5134922;27;20201;-81
2022/04/04 07:26:26;;;;;;;8.93;7.57;;;;;;;8.63;75.57;100763.00;5134566;27;20204;-81
2022/04/04 07:28:53;;;;;;;5.03;4.00;;;;;;;8.27;73.94;100768.63;5134876;27;20228;-82
2022/04/04 07:31:19;;;;;;;12.70;6.85;;;;;;;8.44;71.67;100772.72;5134716;27;20211;-81
2022/04/04 07:33:46;;;;;;;14.52;9.80;;;;;;;8.80;71.08;100764.44;5134702;27;20601;-80
2022/04/04 07:36:13;;;;;;;14.05;7.93;;;;;;;8.73;69.52;100754.72;5134243;27;20747;-80
2022/04/04 07:38:40;;;;;;;11.20;7.65;;;;;;;8.82;67.27;100773.09;5134592;27;20718;-80
2022/04/04 07:41:08;;;;;;;15.20;9.80;;;;;;;9.23;69.97;100771.84;5134443;27;20200;-81
2022/04/04 07:43:35;;;;;;;13.88;9.10;;;;;;;9.27;67.92;100777.19;5134680;27;20716;-86
2022/04/04 07:46:02;;;;;;;13.02;8.90;;;;;;;9.13;68.25;100757.72;5134226;27;20728;-81
2022/04/04 07:48:29;;;;;;;9.07;7.95;;;;;;;8.50;66.40;100683.28;5114969;27;20200;-82
2022/04/04 07:50:56;;;;;;;9.90;7.85;;;;;;;9.03;67.27;100778.97;5134412;27;20189;-82
2022/04/04 07:53:23;;;;;;;18.52;11.93;;;;;;;9.03;68.02;100776.38;5134077;27;20208;-82
2022/04/04 07:55:49;;;;;;;16.40;10.00;;;;;;;9.09;65.59;100760.19;5134073;27;20224;-81
2022/04/04 07:58:17;;;;;;;12.90;8.20;;;;;;;9.31;64.45;100783.34;5134169;27;20228;-83
2022/04/04 08:00:45;;;;;;;10.27;8.27;;;;;;;9.19;65.23;100765.72;5134048;27;20224;-83
2022/04/04 08:03:11;;;;;;;11.40;8.35;;;;;;;9.15;63.58;100774.19;5133065;27;20193;-81
2022/04/04 08:05:38;;;;;;;14.38;9.05;;;;;;;9.18;65.68;100781.16;5133970;27;20192;-80
2022/04/04 08:08:05;;;;;;;11.68;9.05;;;;;;;9.20;65.12;100769.19;5133865;27;20261;-79
2022/04/04 08:10:33;;;;;;;10.48;8.30;;;;;;;9.20;63.23;100754.53;5133795;27;20201;-80
2022/04/04 08:13:00;;;;;;;12.95;8.52;;;;;;;9.11;64.25;100774.94;5133924;27;20196;-82
2022/04/04 08:15:28;;;;;;;14.10;8.52;;;;;;;9.50;63.31;100769.22;5133558;27;20250;-79
2022/04/04 08:17:55;;;;;;;6.70;6.03;;;;;;;9.57;63.40;100776.34;5124267;27;20211;-79
2022/04/04 08:20:22;;;;;;;13.70;10.25;;;;;;;9.42;63.71;100764.69;5132064;27;20220;-79
2022/04/04 08:22:50;;;;;;;13.18;8.98;;;;;;;9.86;62.23;100759.94;5135912;27;20192;-78
2022/04/04 08:25:17;;;;;;;10.93;6.63;;;;;;;9.68;61.70;100768.06;5153924;27;20593;-79
2022/04/04 08:27:45;;;;;;;9.40;6.93;;;;;;;10.07;58.99;100780.41;5135963;27;20328;-79
2022/04/04 08:30:14;;;;;;;13.40;9.13;;;;;;;9.99;58.71;100762.03;5131673;27;20292;-79
2022/04/04 08:32:42;;;;;;;19.35;13.02;;;;;;;10.08;59.50;100751.06;5133485;27;20225;-78
2022/04/04 08:35:11;;;;;;;19.60;12.32;;;;;;;10.31;59.87;100756.06;5132453;27;20197;-77
2022/04/04 08:37:39;;;;;;;14.60;10.32;;;;;;;10.21;59.50;100727.28;5133057;27;20212;-79
2022/04/04 08:40:09;;;;;;;31.35;17.95;;;;;;;9.99;58.79;100725.78;5132739;27;20315;-78
2022/04/04 08:42:36;;;;;;;12.95;10.43;;;;;;;10.47;58.57;100751.28;5096781;27;20615;-81
2022/04/04 08:45:06;;;;;;;17.63;8.70;;;;;;;10.76;55.27;100739.94;5133042;27;20189;-79
2022/04/04 08:47:33;;;;;;;6.50;5.90;;;;;;;10.87;53.65;100738.50;5097460;27;20592;-79
2022/04/04 08:50:02;;;;;;;7.25;6.53;;;;;;;10.16;52.85;100760.84;5132617;27;20196;-80
2022/04/04 08:52:29;;;;;;;7.85;6.88;;;;;;;10.05;53.73;100751.88;5132906;27;20609;-77
2022/04/04 08:54:56;;;;;;;10.50;7.40;;;;;;;10.97;67.66;100717.13;5132767;27;20201;-79
2022/04/04 08:57:23;;;;;;;10.95;8.00;;;;;;;11.02;55.83;100749.25;5132886;27;20235;-79
2022/04/04 08:59:50;;;;;;;10.07;7.72;;;;;;;10.82;54.18;100742.69;5132964;27;20220;-81
2022/04/04 09:02:17;;;;;;;10.10;8.02;;;;;;;10.78;54.22;100722.69;5132198;27;20607;-81
2022/04/04 09:04:43;;;;;;;11.52;8.43;;;;;;;11.23;52.48;100708.22;5132046;27;20200;-81
2022/04/04 09:07:13;;;;;;;9.35;7.55;;;;;;;10.94;52.53;100712.75;5132151;27;20193;-80
2022/04/04 09:09:42;;;;;;;10.23;7.95;;;;;;;11.39;51.77;100712.88;5096197;27;20671;-79
2022/04/04 09:12:11;;;;;;;11.38;7.38;;;;;;;11.29;51.71;100721.31;5132087;27;20207;-79
2022/04/04 09:14:44;;;;;;;13.35;7.95;;;;;;;11.20;52.67;100728.03;5115216;27;20316;-82
2022/04/04 09:17:12;;;;;;;12.55;7.55;;;;;;;11.62;50.07;100726.38;5132225;27;20200;-79
2022/04/04 09:19:39;;;;;;;5.95;5.38;;;;;;;11.34;50.46;100722.28;5131832;27;20747;-82
2022/04/04 09:22:08;;;;;;;11.68;8.15;;;;;;;11.73;50.14;100711.91;5131901;27;20196;-81
2022/04/04 09:24:56;;;;;;;10.30;7.05;;;;;;;11.28;49.23;100721.28;5131847;27;20203;-80
2022/04/04 09:27:25;;;;;;;12.02;7.72;;;;;;;11.04;50.14;100716.41;5131615;27;20208;-80
2022/04/04 09:29:54;;;;;;;15.07;7.75;;;;;;;11.66;49.65;100701.34;5132018;27;20239;-80
2022/04/04 09:32:22;;;;;;;12.85;7.30;;;;;;;11.11;49.91;100699.25;5131778;27;20189;-79
2022/04/04 09:35:01;;;;;;;14.02;10.02;;;;;;;11.04;50.49;100705.16;5131935;27;20216;-81
2022/04/04 09:37:32;;;;;;;12.02;7.75;;;;;;;10.47;51.68;100626.84;5131773;27;20664;-80
2022/04/04 09:40:07;;;;;;;10.13;7.78;;;;;;;10.64;51.04;100638.50;5131697;27;20742;-80
2022/04/04 09:42:34;;;;;;;12.25;8.13;;;;;;;11.53;50.48;100702.78;5095981;28;20200;-79
2022/04/04 09:45:04;;;;;;;14.32;8.55;;;;;;;11.73;50.40;100698.94;5131988;27;20664;-80
2022/04/04 09:47:52;;;;;;;18.38;9.65;;;;;;;11.89;49.58;100694.91;5131393;27;20589;-79
2022/04/04 09:50:41;;;;;;;12.27;7.50;;;;;;;12.00;48.85;100680.38;5131448;27;20204;-79
2022/04/04 09:53:10;;;;;;;13.82;7.65;;;;;;;12.16;48.40;100661.63;5131821;27;20228;-81
2022/04/04 09:55:40;;;;;;;14.48;8.23;;;;;;;12.51;47.35;100692.56;5131628;27;20205;-81
2022/04/04 09:58:11;;;;;;;10.38;6.80;;;;;;;11.96;47.87;100682.88;5131718;27;20285;-79
2022/04/04 10:00:40;;;;;;;14.70;8.57;;;;;;;11.50;50.31;100645.59;5131245;27;20220;-79
2022/04/04 10:03:12;;;;;;;11.88;8.77;;;;;;;11.80;47.84;100660.97;5131730;27;20440;-78
2022/04/04 10:05:42;;;;;;;10.38;7.95;;;;;;;11.32;49.76;100646.09;5095208;28;20189;-78
2022/04/04 10:08:10;;;;;;;11.38;7.30;;;;;;;10.72;50.40;100683.66;5131569;27;20243;-82
2022/04/04 10:10:37;;;;;;;10.23;7.07;;;;;;;11.05;50.37;100676.66;5131372;27;20660;-80
2022/04/04 10:13:05;;;;;;;14.23;9.55;;;;;;;11.11;49.55;100681.09;5131238;27;20205;-80
2022/04/04 10:15:36;;;;;;;17.95;10.88;;;;;;;11.36;49.58;100679.06;5131348;27;20219;-81
2022/04/04 10:18:04;;;;;;;80.28;35.28;;;;;;;11.22;49.84;100670.13;5131516;27;20200;-80
2022/04/04 10:20:31;;;;;;;17.50;9.02;;;;;;;11.65;48.67;100658.91;5131644;27;20231;-79
2022/04/04 10:22:59;;;;;;;10.50;8.88;;;;;;;11.87;48.13;100657.63;5131612;27;20192;-80
2022/04/04 10:25:28;;;;;;;13.35;8.63;;;;;;;11.98;48.42;100655.22;5132686;27;20200;-79
2022/04/04 10:27:56;;;;;;;18.40;12.50;;;;;;;12.18;47.89;100648.66;5135267;27;20660;-79
2022/04/04 10:30:36;;;;;;;9.50;7.15;;;;;;;12.43;46.32;100630.91;5135386;27;20204;-80
2022/04/04 10:33:04;;;;;;;10.25;7.93;;;;;;;12.19;46.35;100620.09;5135083;27;20230;-82
2022/04/04 10:35:33;;;;;;;12.55;7.40;;;;;;;12.67;46.13;100647.72;5135178;27;20672;-80
2022/04/04 10:38:04;;;;;;;8.32;7.53;;;;;;;12.07;45.84;100560.09;5139889;27;20196;-81
2022/04/04 10:40:33;;;;;;;17.52;11.25;;;;;;;12.87;48.50;100639.38;5143254;27;20281;-83
2022/04/04 10:43:18;;;;;;;14.00;7.90;;;;;;;13.29;44.35;100610.47;5136231;27;20205;-81
2022/04/04 10:45:55;;;;;;;11.63;7.13;;;;;;;13.30;44.47;100625.25;5137995;27;20196;-81
2022/04/04 10:48:28;;;;;;;10.32;8.05;;;;;;;13.43;44.62;100623.66;5135715;27;20586;-80
2022/04/04 10:50:55;;;;;;;9.57;6.55;;;;;;;12.46;45.63;100619.66;5134791;27;20306;-80
2022/04/04 10:53:44;;;;;;;15.40;8.90;;;;;;;12.74;45.68;100615.75;5134980;27;20204;-81
2022/04/04 10:56:17;;;;;;;13.30;8.85;;;;;;;12.56;46.08;100621.53;5115654;27;20217;-81
2022/04/04 10:58:44;;;;;;;8.65;6.38;;;;;;;12.19;46.39;100598.41;5134839;27;20669;-81
2022/04/04 11:01:16;;;;;;;10.35;6.47;;;;;;;12.05;47.29;100579.13;5134271;27;20601;-80
2022/04/04 11:03:58;;;;;;;11.48;7.93;;;;;;;12.22;46.36;100609.75;5134506;27;20699;-81
2022/04/04 11:09:26;;;;;;;9.75;6.72;;;;;;;14.08;59.75;100592.22;5134371;27;20297;-79
2022/04/04 11:11:55;;;;;;;10.07;7.65;;;;;;;13.76;48.30;100608.44;5134426;27;20625;-81
2022/04/04 11:14:54;;;;;;;6.88;6.15;;;;;;;12.56;46.93;100607.66;5134386;27;20193;-81
2022/04/04 11:17:36;;;;;;;10.23;7.35;;;;;;;12.62;46.67;100586.97;5070813;28;20630;-81
2022/04/04 11:20:14;;;;;;;14.95;7.43;;;;;;;13.34;44.60;100593.16;5070685;28;20226;-81
2022/04/04 11:22:45;;;;;;;9.48;7.50;;;;;;;12.95;45.32;100591.78;5070774;28;20194;-79
2022/04/04 11:25:16;;;;;;;9.77;7.10;;;;;;;12.56;45.48;100587.72;5070590;28;20202;-82
2022/04/04 11:27:48;;;;;;;14.48;7.22;;;;;;;12.95;45.96;100584.81;5020359;28;20630;-83
2022/04/04 11:30:15;;;;;;;8.85;7.35;;;;;;;13.48;44.60;100576.84;5070666;28;20205;-81
2022/04/04 11:32:46;;;;;;;11.45;8.32;;;;;;;13.91;44.05;100576.44;5070649;28;20198;-82
2022/04/04 11:35:15;;;;;;;9.50;7.65;;;;;;;13.46;42.78;100555.09;5070415;28;20206;-81
2022/04/04 11:37:44;;;;;;;13.05;6.80;;;;;;;13.10;43.53;100561.63;5070663;28;20203;-81
2022/04/04 11:40:14;;;;;;;9.02;6.88;;;;;;;12.93;43.33;100557.91;5070134;28;20234;-80
2022/04/04 11:42:45;;;;;;;15.82;10.50;;;;;;;12.61;44.35;100567.00;5070479;28;20233;-80
2022/04/04 11:45:16;;;;;;;11.48;7.03;;;;;;;12.46;46.30;100556.34;5070341;28;20213;-81
2022/04/04 11:47:51;;;;;;;23.20;13.68;;;;;;;12.43;45.01;100541.59;5070043;28;20598;-81
2022/04/04 11:50:19;;;;;;;8.63;7.20;;;;;;;12.61;44.75;100551.38;5070225;28;20692;-80
2022/04/04 11:52:48;;;;;;;21.90;10.48;;;;;;;12.40;44.95;100547.63;5074755;27;20195;-81
2022/04/04 11:55:17;;;;;;;10.73;7.40;;;;;;;12.58;44.63;100551.34;5133494;27;20200;-81
2022/04/04 11:57:46;;;;;;;12.93;8.05;;;;;;;12.34;45.05;100551.88;5133810;27;20240;-82
2022/04/04 12:00:16;;;;;;;10.02;7.95;;;;;;;12.74;44.55;100551.56;5133658;27;20228;-82